Time;durP1;ratioP1;P1;durP2;ratioP2;P2;SDS_P1;SDS_P2;PMS_P1;PMS_P2;Temp;Humidity;BMP_temperature;BMP_pressure;BME280_temperature;BME280_humidity;BME280_pressure;Samples;Min_cycle;Max_cycle;Signal;HPM_P1;HPM_P2
2021/05/06 00:02:30;;;;;;;16.75;5.10;;;20.30;92.20;;;;;;4953601;29;20051;-53
2021/05/06 00:32:25;;;;;;;17.10;5.15;;;20.50;92.00;;;;;;4957204;29;20461;-56
2021/05/06 00:34:53;;;;;;;15.82;4.32;;;20.50;92.00;;;;;;4957098;29;20023;-55
2021/05/06 00:37:20;;;;;;;14.77;5.57;;;20.50;92.10;;;;;;4957528;29;20111;-55
2021/05/06 00:42:44;;;;;;;16.73;4.20;;;20.50;92.10;;;;;;4956934;29;20031;-53
2021/05/06 00:56:29;;;;;;;14.57;4.22;;;20.50;92.00;;;;;;4957132;29;20086;-57
2021/05/06 01:04:25;;;;;;;13.18;4.55;;;20.60;91.90;;;;;;4956480;29;20095;-53
2021/05/06 01:09:45;;;;;;;16.65;4.90;;;20.60;92.00;;;;;;4956888;29;20027;-59
2021/05/06 01:12:13;;;;;;;15.10;4.47;;;20.70;92.10;;;;;;4956388;29;20041;-60
2021/05/06 01:14:40;;;;;;;13.98;4.60;;;20.60;91.90;;;;;;4955018;29;20027;-54
2021/05/06 01:17:08;;;;;;;16.75;5.25;;;20.70;92.10;;;;;;4956507;29;20118;-57
2021/05/06 01:19:35;;;;;;;17.92;4.75;;;20.70;92.00;;;;;;4956066;29;20075;-59
2021/05/06 01:22:03;;;;;;;23.02;5.13;;;20.70;92.00;;;;;;4954885;28;20469;-58
2021/05/06 01:24:32;;;;;;;16.10;4.50;;;20.70;91.90;;;;;;4956109;29;20495;-59
2021/05/06 01:32:35;;;;;;;15.43;4.00;;;20.70;91.90;;;;;;4955868;29;20039;-58
2021/05/06 01:35:06;;;;;;;12.65;3.72;;;20.70;92.20;;;;;;4955299;29;20035;-58
2021/05/06 01:37:45;;;;;;;12.63;3.55;;;20.70;91.90;;;;;;4955870;29;20031;-59
2021/05/06 01:43:44;;;;;;;16.10;4.75;;;20.70;92.40;;;;;;4955439;29;20042;-58
2021/05/06 01:51:25;;;;;;;16.90;4.30;;;20.70;92.10;;;;;;4955743;29;20123;-56
2021/05/06 01:59:38;;;;;;;15.48;4.35;;;20.70;92.70;;;;;;4952820;29;20038;-50
2021/05/06 02:02:06;;;;;;;17.52;4.88;;;20.70;92.40;;;;;;4953397;29;20059;-48
2021/05/06 02:04:33;;;;;;;15.60;4.03;;;20.70;92.20;;;;;;4957827;28;20039;-52
2021/05/06 02:07:01;;;;;;;17.77;5.28;;;20.70;92.30;;;;;;4953771;29;20055;-58
2021/05/06 02:09:28;;;;;;;13.15;3.75;;;20.70;92.40;;;;;;4949122;29;20034;-54
2021/05/06 02:11:56;;;;;;;16.10;4.55;;;20.70;92.30;;;;;;4964334;28;20504;-57
2021/05/06 02:14:24;;;;;;;14.70;4.88;;;20.70;92.40;;;;;;4955054;28;20493;-56
2021/05/06 02:16:51;;;;;;;21.27;4.95;;;20.70;92.40;;;;;;4960805;28;20648;-54
2021/05/06 02:19:28;;;;;;;15.93;4.35;;;20.70;92.50;;;;;;4950470;28;20035;-54
2021/05/06 02:21:56;;;;;;;11.80;3.88;;;20.70;92.50;;;;;;4956647;28;20448;-51
2021/05/06 02:24:23;;;;;;;14.48;4.22;;;20.70;92.30;;;;;;4962254;28;20034;-56
2021/05/06 02:26:52;;;;;;;15.88;4.47;;;20.80;92.50;;;;;;4957026;28;20023;-50
2021/05/06 02:29:20;;;;;;;14.48;3.95;;;20.80;92.40;;;;;;4952711;28;20046;-54
2021/05/06 02:31:47;;;;;;;13.35;4.18;;;20.80;92.50;;;;;;4957275;28;20059;-55
2021/05/06 02:34:15;;;;;;;13.60;4.57;;;20.80;92.40;;;;;;4957755;28;20042;-52
2021/05/06 02:36:42;;;;;;;13.63;3.72;;;20.80;92.20;;;;;;4944165;28;20150;-49
2021/05/06 02:39:09;;;;;;;15.20;4.50;;;20.80;92.30;;;;;;4956091;28;20027;-50
2021/05/06 02:41:37;;;;;;;14.32;4.25;;;20.90;92.80;;;;;;4957203;28;20115;-57
2021/05/06 02:44:04;;;;;;;12.40;4.15;;;20.90;92.40;;;;;;4956792;28;20064;-55
2021/05/06 02:46:32;;;;;;;13.32;4.30;;;20.90;92.20;;;;;;4964567;28;20110;-54
2021/05/06 02:49:02;;;;;;;15.60;4.72;;;20.90;92.20;;;;;;4954192;28;20031;-55
2021/05/06 02:51:34;;;;;;;18.25;4.90;;;21.00;92.00;;;;;;4953751;28;20039;-55
2021/05/06 02:54:02;;;;;;;11.95;3.85;;;21.00;92.40;;;;;;4956687;28;20085;-49
2021/05/06 02:56:50;;;;;;;13.32;4.90;;;21.00;92.10;;;;;;4955745;28;20038;-55
2021/05/06 03:04:49;;;;;;;14.52;4.10;;;21.00;91.80;;;;;;4953305;29;20057;-51
2021/05/06 03:07:22;;;;;;;14.32;3.72;;;21.10;92.00;;;;;;4956235;28;20105;-53
2021/05/06 03:09:57;;;;;;;15.23;4.97;;;21.10;92.00;;;;;;4946611;28;20039;-52
2021/05/06 03:12:44;;;;;;;11.38;4.25;;;21.10;91.80;;;;;;4957322;28;20046;-58
2021/05/06 03:23:29;;;;;;;11.90;4.45;;;21.10;91.80;;;;;;4966270;28;20030;-48
2021/05/06 03:25:57;;;;;;;11.68;3.95;;;21.10;92.00;;;;;;4956920;28;20027;-48
2021/05/06 03:28:32;;;;;;;10.10;3.95;;;21.10;91.90;;;;;;4944969;28;20035;-51
2021/05/06 03:42:12;;;;;;;11.68;3.75;;;21.10;91.90;;;;;;4960376;28;20062;-52
2021/05/06 03:44:49;;;;;;;11.30;3.83;;;21.10;92.10;;;;;;4958495;28;20035;-48
2021/05/06 04:27:28;;;;;;;10.45;3.95;;;21.30;92.10;;;;;;4953183;28;20083;-50
2021/05/06 04:37:51;;;;;;;7.93;3.45;;;21.40;92.10;;;;;;4955490;28;20078;-53
2021/05/06 04:46:18;;;;;;;10.52;4.05;;;21.40;91.80;;;;;;4963126;28;20047;-52
2021/05/06 04:54:35;;;;;;;10.50;3.78;;;21.40;91.80;;;;;;4956553;29;20186;-60
2021/05/06 05:05:01;;;;;;;9.27;3.30;;;21.40;92.00;;;;;;4957320;29;20074;-61
2021/05/06 05:07:41;;;;;;;13.43;4.00;;;21.40;92.10;;;;;;4955991;29;20046;-55
2021/05/06 05:12:58;;;;;;;9.00;3.65;;;21.40;92.10;;;;;;4956077;29;20114;-58
2021/05/06 05:18:28;;;;;;;14.27;4.45;;;21.40;92.00;;;;;;4955323;29;20118;-59
2021/05/06 05:23:48;;;;;;;15.68;5.30;;;21.40;92.30;;;;;;4956482;29;20461;-50
2021/05/06 05:26:16;;;;;;;11.13;4.30;;;21.30;92.40;;;;;;4955614;29;20035;-50
2021/05/06 05:28:43;;;;;;;13.13;4.10;;;21.30;92.00;;;;;;4955175;29;20049;-57
2021/05/06 05:31:11;;;;;;;21.20;4.30;;;21.30;92.20;;;;;;4953374;29;20071;-58
2021/05/06 05:33:52;;;;;;;9.02;3.42;;;21.30;92.20;;;;;;4955202;29;20050;-58
2021/05/06 05:36:21;;;;;;;15.02;4.95;;;21.20;92.20;;;;;;4946733;28;20486;-50
2021/05/06 05:44:31;;;;;;;15.07;4.22;;;21.20;92.30;;;;;;4960691;28;20031;-58
2021/05/06 05:55:31;;;;;;;14.57;4.00;;;21.30;92.20;;;;;;4911852;29;20071;-56
2021/05/06 05:57:58;;;;;;;14.00;4.57;;;21.30;92.20;;;;;;4948046;28;20039;-56
2021/05/06 06:00:25;;;;;;;14.18;3.78;;;21.30;92.30;;;;;;4957875;28;20071;-51
2021/05/06 06:02:53;;;;;;;14.52;4.50;;;21.30;92.20;;;;;;4957958;28;20519;-56
2021/05/06 06:05:20;;;;;;;12.07;4.15;;;21.30;92.50;;;;;;4952779;29;20047;-53
2021/05/06 06:07:48;;;;;;;11.55;4.07;;;21.30;92.20;;;;;;4947846;28;20033;-60
2021/05/06 06:10:15;;;;;;;13.77;4.50;;;21.30;92.20;;;;;;4962054;28;20028;-58
2021/05/06 06:12:43;;;;;;;16.85;5.43;;;21.30;92.30;;;;;;4954945;29;20035;-56
2021/05/06 06:15:59;;;;;;;12.15;3.95;;;21.30;92.40;;;;;;4955088;29;20110;-57
2021/05/06 06:18:11;;;;;;;12.68;4.25;;;21.30;92.40;;;;;;4944765;29;20039;-56
2021/05/06 06:20:41;;;;;;;13.35;4.25;;;21.30;92.40;;;;;;4955117;29;20123;-61
2021/05/06 06:23:09;;;;;;;12.93;3.67;;;21.30;92.40;;;;;;4954639;29;20023;-53
2021/05/06 06:25:36;;;;;;;8.80;3.60;;;21.20;92.40;;;;;;4954500;29;20031;-54
2021/05/06 06:28:11;;;;;;;13.05;4.28;;;21.30;92.50;;;;;;4953907;29;20102;-56
2021/05/06 06:30:40;;;;;;;12.50;4.07;;;21.20;92.40;;;;;;4954419;29;20427;-59
2021/05/06 06:33:08;;;;;;;17.48;4.63;;;21.20;92.60;;;;;;4954122;29;20077;-51
2021/05/06 06:35:39;;;;;;;12.07;4.35;;;21.20;92.60;;;;;;4954649;29;20466;-58
2021/05/06 06:38:06;;;;;;;11.93;4.07;;;21.10;92.60;;;;;;4953388;29;20043;-57
2021/05/06 06:40:34;;;;;;;14.68;5.00;;;21.10;92.60;;;;;;4954882;29;20155;-55
2021/05/06 06:43:01;;;;;;;17.75;4.78;;;21.10;92.80;;;;;;4937462;29;20394;-58
2021/05/06 06:45:28;;;;;;;15.60;4.40;;;21.10;92.70;;;;;;4954885;29;20023;-62
2021/05/06 06:47:56;;;;;;;13.88;4.10;;;21.10;92.80;;;;;;4954420;29;20430;-54
2021/05/06 06:50:24;;;;;;;13.15;4.95;;;21.00;93.00;;;;;;4952857;29;20027;-55
2021/05/06 06:52:51;;;;;;;14.05;5.13;;;21.10;92.80;;;;;;4930161;29;20043;-58
2021/05/06 06:55:19;;;;;;;15.73;5.82;;;21.10;93.10;;;;;;4934800;29;20028;-57
2021/05/06 06:57:46;;;;;;;11.70;5.32;;;21.10;92.80;;;;;;4934509;29;20032;-60
2021/05/06 07:00:14;;;;;;;15.15;5.47;;;21.10;92.90;;;;;;4949679;29;20034;-59
2021/05/06 07:02:41;;;;;;;13.25;5.50;;;21.00;92.90;;;;;;4934741;29;20439;-60
2021/05/06 07:05:09;;;;;;;16.52;7.50;;;21.00;92.90;;;;;;4934440;29;20036;-51
2021/05/06 07:07:36;;;;;;;13.85;6.78;;;21.00;93.00;;;;;;4934553;29;20027;-55
2021/05/06 07:10:04;;;;;;;15.38;7.35;;;21.00;93.00;;;;;;4934057;29;20024;-54
2021/05/06 07:12:31;;;;;;;15.77;7.20;;;21.00;93.00;;;;;;4934307;29;20039;-53
2021/05/06 07:14:59;;;;;;;18.17;8.02;;;21.00;93.00;;;;;;4934289;29;20019;-58
2021/05/06 07:17:26;;;;;;;15.02;7.15;;;21.00;93.20;;;;;;4943779;29;20043;-55
2021/05/06 07:19:53;;;;;;;14.30;7.30;;;21.10;93.20;;;;;;4951878;28;20377;-54
2021/05/06 07:22:21;;;;;;;19.55;9.38;;;21.10;93.20;;;;;;4941193;28;20054;-50
2021/05/06 07:24:48;;;;;;;14.93;8.35;;;21.10;93.30;;;;;;4951516;29;20039;-53
2021/05/06 07:27:15;;;;;;;17.15;7.40;;;21.10;93.30;;;;;;4956068;28;20390;-55
2021/05/06 07:29:42;;;;;;;22.90;8.30;;;21.10;93.30;;;;;;4953406;29;20386;-56
2021/05/06 07:32:10;;;;;;;20.98;9.27;;;21.10;93.30;;;;;;4953332;29;20039;-55
2021/05/06 07:34:37;;;;;;;22.20;7.63;;;21.10;93.30;;;;;;4953325;29;20034;-44
2021/05/06 07:37:05;;;;;;;27.13;10.13;;;21.10;93.60;;;;;;4952794;29;20027;-49
2021/05/06 07:39:32;;;;;;;26.48;11.07;;;21.20;93.60;;;;;;4953477;29;20076;-50
2021/05/06 07:42:00;;;;;;;28.83;8.90;;;21.20;93.70;;;;;;4953086;29;20031;-52
2021/05/06 07:44:27;;;;;;;26.08;9.63;;;21.20;93.90;;;;;;4953015;29;20043;-45
2021/05/06 07:47:08;;;;;;;28.02;10.20;;;21.20;93.90;;;;;;4952945;29;20023;-50
2021/05/06 07:49:36;;;;;;;31.38;8.85;;;21.20;94.00;;;;;;4953659;29;20034;-51
2021/05/06 07:52:04;;;;;;;26.58;8.18;;;21.20;94.00;;;;;;4953348;29;20106;-48
2021/05/06 07:54:32;;;;;;;27.88;9.05;;;21.20;94.00;;;;;;4952007;29;20031;-55
2021/05/06 07:57:00;;;;;;;21.23;8.65;;;21.20;94.10;;;;;;4951759;29;20054;-51
2021/05/06 07:59:27;;;;;;;22.98;7.97;;;21.30;94.40;;;;;;4936086;29;20027;-54
2021/05/06 08:01:55;;;;;;;25.58;7.97;;;21.30;94.10;;;;;;4953160;28;20023;-43
2021/05/06 08:04:22;;;;;;;29.75;8.25;;;21.20;94.40;;;;;;4952785;29;20043;-54
2021/05/06 08:06:50;;;;;;;25.20;6.95;;;21.30;94.70;;;;;;4952255;29;20028;-58
2021/05/06 08:09:17;;;;;;;25.90;7.50;;;21.30;94.60;;;;;;4952638;29;20073;-49
2021/05/06 08:11:44;;;;;;;22.85;6.88;;;21.30;94.70;;;;;;4936293;29;20422;-59
2021/05/06 08:14:12;;;;;;;24.10;7.47;;;21.40;94.70;;;;;;4953428;29;20027;-51
2021/05/06 08:16:39;;;;;;;28.25;8.23;;;21.40;94.90;;;;;;4935595;29;20020;-54
2021/05/06 08:19:06;;;;;;;24.42;8.38;;;21.40;95.00;;;;;;4952963;29;20031;-53
2021/05/06 08:21:34;;;;;;;30.85;7.47;;;21.40;95.20;;;;;;4952997;29;20031;-58
2021/05/06 08:24:01;;;;;;;20.50;7.47;;;21.40;95.40;;;;;;4953034;29;20034;-53
2021/05/06 08:26:28;;;;;;;24.38;8.07;;;21.50;95.70;;;;;;4953197;29;20079;-57
2021/05/06 08:28:56;;;;;;;26.52;7.75;;;21.50;95.90;;;;;;4952587;29;20512;-54
2021/05/06 08:31:23;;;;;;;28.10;7.18;;;21.50;95.90;;;;;;4955666;28;20045;-57
2021/05/06 08:33:51;;;;;;;28.88;7.28;;;21.60;96.00;;;;;;4956253;29;20031;-60
2021/05/06 08:36:18;;;;;;;30.02;10.35;;;21.60;96.00;;;;;;4956514;29;20382;-56
2021/05/06 08:38:45;;;;;;;27.25;9.25;;;21.60;96.10;;;;;;4956963;29;20047;-55
2021/05/06 08:41:14;;;;;;;27.58;8.15;;;21.60;96.00;;;;;;4947955;28;20028;-57
2021/05/06 08:43:46;;;;;;;36.88;11.65;;;21.60;96.00;;;;;;4959247;28;20357;-53
2021/05/06 08:46:14;;;;;;;46.88;15.45;;;21.70;96.20;;;;;;4955085;28;20402;-55
2021/05/06 08:48:42;;;;;;;36.10;10.88;;;21.60;96.30;;;;;;4952780;29;20027;-52
2021/05/06 08:51:09;;;;;;;35.78;13.20;;;21.70;96.50;;;;;;4956269;28;20043;-55
2021/05/06 08:53:37;;;;;;;50.67;13.15;;;21.70;96.60;;;;;;4954686;29;20122;-52
2021/05/06 08:56:05;;;;;;;36.35;12.77;;;21.70;96.80;;;;;;4953212;28;20023;-56
2021/05/06 08:58:32;;;;;;;37.35;14.90;;;21.70;96.90;;;;;;4955241;28;20342;-54
2021/05/06 09:01:00;;;;;;;36.15;16.80;;;21.70;97.10;;;;;;4957224;28;20026;-53
2021/05/06 09:03:27;;;;;;;48.72;13.93;;;21.70;97.10;;;;;;4948099;29;20055;-54
2021/05/06 09:06:19;;;;;;;46.92;15.23;;;21.70;97.40;;;;;;4947842;28;20378;-55
2021/05/06 09:09:04;;;;;;;47.50;12.73;;;21.70;97.30;;;;;;4956602;28;20095;-53
2021/05/06 09:11:34;;;;;;;41.38;12.85;;;21.70;97.50;;;;;;4960971;28;20034;-55
2021/05/06 09:14:09;;;;;;;37.67;16.27;;;21.80;97.40;;;;;;4951030;28;20027;-49
2021/05/06 09:16:42;;;;;;;47.22;15.27;;;21.80;97.60;;;;;;4957650;28;20031;-55
2021/05/06 09:19:12;;;;;;;41.92;14.43;;;21.80;97.60;;;;;;4954383;29;20031;-54
2021/05/06 09:21:46;;;;;;;47.25;12.95;;;21.80;97.80;;;;;;4961393;28;20023;-49
2021/05/06 09:24:22;;;;;;;33.33;13.32;;;21.80;97.80;;;;;;4947232;28;20028;-53
2021/05/06 09:26:53;;;;;;;33.53;11.20;;;21.80;97.40;;;;;;4954610;29;20075;-54
2021/05/06 09:29:37;;;;;;;35.42;10.30;;;21.80;97.50;;;;;;4957911;28;20078;-50
2021/05/06 09:32:18;;;;;;;37.97;10.18;;;21.80;97.50;;;;;;4958048;28;20127;-54
2021/05/06 09:34:47;;;;;;;38.90;9.75;;;21.80;97.40;;;;;;4945732;29;20035;-50
2021/05/06 09:37:29;;;;;;;48.88;10.27;;;21.80;97.60;;;;;;4945149;28;20031;-55
2021/05/06 09:40:03;;;;;;;22.45;8.65;;;21.70;96.80;;;;;;4954979;28;20118;-49
2021/05/06 09:42:45;;;;;;;37.03;10.10;;;21.70;96.40;;;;;;4952203;28;20668;-54
2021/05/06 09:45:29;;;;;;;42.72;9.60;;;21.60;96.20;;;;;;4955664;28;20070;-52
2021/05/06 09:48:28;;;;;;;37.28;8.52;;;21.60;96.00;;;;;;4953111;28;20031;-58
2021/05/06 09:51:04;;;;;;;38.53;10.02;;;21.60;95.90;;;;;;4931202;28;20046;-58
2021/05/06 09:53:33;;;;;;;34.95;9.35;;;21.60;95.50;;;;;;4955407;28;20035;-50
2021/05/06 09:56:03;;;;;;;26.73;9.18;;;21.60;95.60;;;;;;4954116;28;20023;-53
2021/05/06 09:58:33;;;;;;;29.02;8.50;;;21.60;95.50;;;;;;4955059;28;20034;-58
2021/05/06 10:01:10;;;;;;;37.95;8.77;;;21.50;95.60;;;;;;4954133;28;20027;-53
2021/05/06 10:03:38;;;;;;;32.67;8.95;;;21.50;95.60;;;;;;4955229;28;20123;-58
2021/05/06 10:06:14;;;;;;;26.95;8.10;;;21.50;95.70;;;;;;4949472;28;20105;-54
2021/05/06 10:08:41;;;;;;;31.23;9.13;;;21.40;95.80;;;;;;4959643;28;20055;-55
2021/05/06 10:11:14;;;;;;;40.25;9.95;;;21.50;95.90;;;;;;4956203;28;20064;-54
2021/05/06 10:13:43;;;;;;;32.53;9.65;;;21.40;96.00;;;;;;4961247;28;20038;-55
2021/05/06 10:16:12;;;;;;;28.98;8.38;;;21.50;96.20;;;;;;4953651;28;20031;-54
2021/05/06 10:18:41;;;;;;;29.33;8.15;;;21.50;95.80;;;;;;4957434;28;20027;-54
2021/05/06 10:21:12;;;;;;;24.63;8.43;;;21.50;96.10;;;;;;4956772;28;20367;-56
2021/05/06 10:23:39;;;;;;;25.23;8.88;;;21.50;96.00;;;;;;4959941;28;20030;-54
2021/05/06 10:26:07;;;;;;;29.80;8.25;;;21.50;96.00;;;;;;4956660;28;20035;-53
2021/05/06 10:28:35;;;;;;;25.33;7.90;;;21.40;95.80;;;;;;4961513;28;20023;-55
2021/05/06 10:31:07;;;;;;;29.63;8.57;;;21.40;95.80;;;;;;4956791;28;20027;-53
2021/05/06 10:33:38;;;;;;;28.35;8.55;;;21.40;95.80;;;;;;4954017;28;20460;-52
2021/05/06 10:36:06;;;;;;;29.53;8.33;;;21.40;95.80;;;;;;4952457;28;20449;-55
2021/05/06 10:38:36;;;;;;;28.50;8.38;;;21.40;95.70;;;;;;4960825;28;20089;-53
2021/05/06 10:41:32;;;;;;;30.02;8.57;;;21.40;96.10;;;;;;4949412;29;20023;-51
2021/05/06 10:44:08;;;;;;;24.25;7.55;;;21.40;95.80;;;;;;4958993;28;20046;-52
2021/05/06 10:47:03;;;;;;;26.17;7.28;;;21.30;95.60;;;;;;4959045;28;20028;-49
2021/05/06 10:49:40;;;;;;;27.02;6.82;;;21.30;95.40;;;;;;4953399;28;20382;-52
2021/05/06 10:52:11;;;;;;;23.88;7.90;;;21.30;95.40;;;;;;4952954;29;20532;-52
2021/05/06 10:54:49;;;;;;;24.85;7.18;;;21.30;95.50;;;;;;4950977;28;20624;-49
2021/05/06 10:57:19;;;;;;;20.02;6.72;;;21.30;95.50;;;;;;4960210;28;20484;-53
2021/05/06 10:59:47;;;;;;;20.95;6.90;;;21.20;95.50;;;;;;4954895;28;20038;-48
2021/05/06 11:02:39;;;;;;;19.65;6.28;;;21.20;95.50;;;;;;4952099;28;20106;-52
2021/05/06 11:05:15;;;;;;;20.55;6.25;;;21.20;95.40;;;;;;4945135;28;20035;-46
2021/05/06 11:07:43;;;;;;;28.20;8.23;;;21.20;95.30;;;;;;4953832;28;20110;-51
2021/05/06 11:10:10;;;;;;;28.35;8.25;;;21.20;95.50;;;;;;4958760;28;20041;-50
2021/05/06 11:12:40;;;;;;;23.10;7.80;;;21.20;95.50;;;;;;4955703;28;20047;-51
2021/05/06 11:15:10;;;;;;;27.15;8.75;;;21.20;95.60;;;;;;4954824;28;20027;-49
2021/05/06 11:17:40;;;;;;;37.03;10.38;;;21.20;95.50;;;;;;4953558;28;20548;-51
2021/05/06 11:20:11;;;;;;;35.15;11.18;;;21.20;95.40;;;;;;4952165;28;20035;-50
2021/05/06 11:22:50;;;;;;;30.70;10.13;;;21.20;95.40;;;;;;4959833;28;20043;-52
2021/05/06 11:25:37;;;;;;;35.17;11.30;;;21.20;95.40;;;;;;4947486;28;20469;-55
2021/05/06 11:28:24;;;;;;;32.40;10.55;;;21.20;95.40;;;;;;4950761;28;20027;-47
2021/05/06 11:30:53;;;;;;;32.08;10.40;;;21.20;95.30;;;;;;4962327;28;20503;-48
2021/05/06 11:33:20;;;;;;;32.08;9.70;;;21.20;95.30;;;;;;4954345;28;20126;-45
2021/05/06 11:36:09;;;;;;;25.80;9.02;;;21.20;95.30;;;;;;4952248;28;20074;-49
2021/05/06 11:38:36;;;;;;;32.33;10.15;;;21.20;95.30;;;;;;4953404;28;20062;-48
2021/05/06 11:41:08;;;;;;;31.15;10.48;;;21.20;95.30;;;;;;4951579;29;20027;-53
2021/05/06 11:43:40;;;;;;;24.75;8.65;;;21.20;95.20;;;;;;4953347;28;20038;-51
2021/05/06 11:46:08;;;;;;;26.95;9.13;;;21.20;95.20;;;;;;4951405;28;20109;-48
2021/05/06 11:48:41;;;;;;;22.23;8.18;;;21.20;95.20;;;;;;4949024;29;20042;-48
2021/05/06 11:51:08;;;;;;;;;;;21.10;95.10;;;;;;4949100;29;20027;-57
2021/05/06 11:53:37;;;;;;;34.55;8.63;;;21.10;95.20;;;;;;4952828;29;19911;-57
2021/05/06 11:56:16;;;;;;;29.35;9.55;;;21.10;95.20;;;;;;4949722;28;20054;-49
2021/05/06 11:58:44;;;;;;;25.65;8.85;;;21.10;95.20;;;;;;4957774;28;20577;-56
2021/05/06 12:01:11;;;;;;;25.05;8.02;;;21.10;95.10;;;;;;4952807;28;20371;-51
2021/05/06 12:03:43;;;;;;;32.08;9.07;;;21.10;95.10;;;;;;4960638;28;20047;-54
2021/05/06 12:06:10;;;;;;;24.45;7.80;;;21.10;95.10;;;;;;4954970;28;20097;-54
2021/05/06 12:08:45;;;;;;;24.92;9.23;;;21.10;95.10;;;;;;4956817;28;20557;-49
2021/05/06 12:11:13;;;;;;;24.33;8.20;;;21.10;95.00;;;;;;4956588;28;20122;-54
2021/05/06 12:13:50;;;;;;;24.20;8.48;;;21.10;95.00;;;;;;4956184;29;20134;-48
2021/05/06 12:16:23;;;;;;;23.10;8.20;;;21.10;95.00;;;;;;4949887;28;20114;-50
2021/05/06 12:19:10;;;;;;;28.25;8.85;;;21.10;95.00;;;;;;4956005;29;20110;-50
2021/05/06 12:21:43;;;;;;;24.65;8.23;;;21.10;95.00;;;;;;4959769;28;20050;-50
2021/05/06 12:24:24;;;;;;;20.25;7.57;;;21.10;94.90;;;;;;4952819;28;20113;-48
2021/05/06 12:26:52;;;;;;;23.90;8.55;;;21.10;94.90;;;;;;4953930;28;20059;-52
2021/05/06 12:29:24;;;;;;;22.85;7.93;;;21.10;94.90;;;;;;4963196;28;20030;-51
2021/05/06 12:31:51;;;;;;;;;;;21.10;94.90;;;;;;4958633;28;20483;-56
2021/05/06 12:34:24;;;;;;;22.52;7.22;;;21.10;94.80;;;;;;4956638;28;19914;-51
2021/05/06 12:36:59;;;;;;;22.38;8.00;;;21.10;94.80;;;;;;4959320;28;20036;-54
2021/05/06 12:39:30;;;;;;;18.23;7.40;;;21.10;94.80;;;;;;4968037;28;20031;-48
2021/05/06 12:42:06;;;;;;;19.77;7.90;;;21.10;94.90;;;;;;4955257;29;20035;-53
2021/05/06 12:44:39;;;;;;;27.70;7.97;;;21.10;94.90;;;;;;4953012;28;20042;-52
2021/05/06 12:47:19;;;;;;;24.30;8.25;;;21.00;94.90;;;;;;4965730;28;20034;-53
2021/05/06 12:50:06;;;;;;;26.52;8.15;;;21.00;94.90;;;;;;4963615;28;20485;-50
2021/05/06 12:52:44;;;;;;;22.92;7.78;;;21.00;95.20;;;;;;4959573;28;20094;-47
2021/05/06 12:55:18;;;;;;;20.50;7.15;;;21.00;94.80;;;;;;4962722;28;20481;-49
2021/05/06 12:58:02;;;;;;;21.05;7.53;;;21.00;94.80;;;;;;4959336;28;20094;-48
2021/05/06 13:00:34;;;;;;;22.63;7.93;;;21.10;94.80;;;;;;4952015;29;20381;-48
2021/05/06 13:03:06;;;;;;;19.33;7.10;;;21.00;94.70;;;;;;4955557;28;20051;-47
2021/05/06 13:05:38;;;;;;;19.05;6.60;;;21.00;94.70;;;;;;4957982;28;20020;-52
2021/05/06 13:08:06;;;;;;;22.30;7.00;;;21.00;94.70;;;;;;4955422;28;20390;-51
2021/05/06 13:10:39;;;;;;;16.02;5.95;;;21.00;94.70;;;;;;4962494;28;20027;-48
2021/05/06 13:13:08;;;;;;;20.85;7.47;;;21.00;94.80;;;;;;4957130;28;20034;-55
2021/05/06 13:15:50;;;;;;;17.17;7.57;;;21.00;94.80;;;;;;4963463;28;20055;-52
2021/05/06 13:18:19;;;;;;;19.23;7.32;;;21.00;94.70;;;;;;4947160;28;20032;-55
2021/05/06 13:20:48;;;;;;;19.42;6.97;;;21.00;94.70;;;;;;4962368;28;20035;-52
2021/05/06 13:23:30;;;;;;;22.40;7.82;;;20.90;94.70;;;;;;4961940;28;20028;-46
2021/05/06 13:25:58;;;;;;;;;;;20.90;94.70;;;;;;4956181;28;20090;-54
2021/05/06 13:28:34;;;;;;;18.27;6.25;;;20.90;94.80;;;;;;4958394;28;20001;-52
2021/05/06 13:31:19;;;;;;;18.27;6.75;;;20.90;94.80;;;;;;4959066;28;20034;-50
2021/05/06 13:33:49;;;;;;;19.73;6.80;;;20.90;94.70;;;;;;4956506;28;20115;-52
2021/05/06 13:36:20;;;;;;;17.55;6.85;;;20.90;94.70;;;;;;4954167;28;20027;-52
2021/05/06 13:38:48;;;;;;;20.00;7.03;;;20.90;94.70;;;;;;4958747;28;20493;-52
2021/05/06 13:41:16;;;;;;;20.35;7.53;;;20.90;94.70;;;;;;4954109;29;20031;-53
2021/05/06 13:43:44;;;;;;;17.13;6.63;;;20.90;94.70;;;;;;4958972;28;20031;-55
2021/05/06 13:46:16;;;;;;;17.60;6.72;;;20.90;94.70;;;;;;4949760;28;20114;-59
2021/05/06 13:48:44;;;;;;;17.20;6.57;;;20.80;94.70;;;;;;4962633;28;20371;-45
2021/05/06 13:51:13;;;;;;;20.63;5.93;;;20.90;94.70;;;;;;4955598;29;20030;-52
2021/05/06 13:53:42;;;;;;;17.50;6.68;;;20.90;94.80;;;;;;4955895;29;20086;-51
2021/05/06 13:56:10;;;;;;;16.05;5.70;;;20.80;94.70;;;;;;4955540;29;20027;-52
2021/05/06 13:58:38;;;;;;;14.98;5.90;;;20.80;94.70;;;;;;4955540;29;20039;-49
2021/05/06 14:01:09;;;;;;;19.67;6.88;;;20.80;94.70;;;;;;4955508;29;20115;-52
2021/05/06 14:03:37;;;;;;;14.77;6.18;;;20.80;94.80;;;;;;4955532;28;20394;-54
2021/05/06 14:06:05;;;;;;;15.77;6.03;;;20.80;94.80;;;;;;4946822;28;20042;-50
2021/05/06 14:08:33;;;;;;;16.23;6.80;;;20.80;94.80;;;;;;4956150;28;20061;-54
2021/05/06 14:11:01;;;;;;;18.70;6.45;;;20.80;94.80;;;;;;4956847;28;20035;-50
2021/05/06 14:13:31;;;;;;;20.98;7.00;;;20.70;94.80;;;;;;4956261;28;20039;-58
2021/05/06 14:15:59;;;;;;;14.77;5.68;;;20.70;94.90;;;;;;4947138;29;20389;-58
2021/05/06 14:18:27;;;;;;;15.20;6.07;;;20.70;94.90;;;;;;4956790;28;20047;-60
2021/05/06 14:21:00;;;;;;;14.25;6.10;;;20.70;95.00;;;;;;4947153;28;20031;-55
2021/05/06 14:23:28;;;;;;;17.27;5.95;;;20.70;95.00;;;;;;4962223;28;20035;-58
2021/05/06 14:25:56;;;;;;;17.27;6.68;;;20.70;95.00;;;;;;4954363;28;20478;-57
2021/05/06 14:28:23;;;;;;;16.35;6.05;;;20.60;95.00;;;;;;4952276;28;20370;-55
2021/05/06 14:30:50;;;;;;;21.15;6.97;;;20.60;95.00;;;;;;4950650;28;20147;-49
2021/05/06 14:33:18;;;;;;;17.70;6.60;;;20.60;95.10;;;;;;4958618;28;20039;-48
2021/05/06 14:35:45;;;;;;;12.50;5.50;;;20.60;95.20;;;;;;4957454;28;20074;-49
2021/05/06 14:38:13;;;;;;;13.25;4.75;;;20.50;95.10;;;;;;4960423;28;20019;-47
2021/05/06 14:40:41;;;;;;;16.35;6.45;;;20.60;95.10;;;;;;4953460;28;20054;-48
2021/05/06 14:43:09;;;;;;;17.30;6.68;;;20.50;95.20;;;;;;4952822;28;20074;-47
2021/05/06 14:45:37;;;;;;;17.17;5.95;;;20.60;95.20;;;;;;4957590;28;20031;-47
2021/05/06 14:48:05;;;;;;;14.07;6.10;;;20.50;95.10;;;;;;4953015;28;20027;-48
2021/05/06 14:50:33;;;;;;;21.08;6.65;;;20.60;95.10;;;;;;4957261;28;20027;-50
2021/05/06 14:53:03;;;;;;;16.75;6.07;;;20.50;95.10;;;;;;4953122;28;20074;-49
2021/05/06 14:55:30;;;;;;;12.07;5.35;;;20.50;95.10;;;;;;4964139;28;20446;-46
2021/05/06 14:57:58;;;;;;;12.18;4.72;;;20.50;95.10;;;;;;4953226;28;20038;-45
2021/05/06 15:00:25;;;;;;;15.32;4.80;;;20.50;95.10;;;;;;4957228;28;20539;-49
2021/05/06 15:02:53;;;;;;;13.85;5.05;;;20.50;95.10;;;;;;4953181;28;20047;-47
2021/05/06 15:05:22;;;;;;;14.40;5.65;;;20.50;95.10;;;;;;4953435;29;20027;-53
2021/05/06 15:07:49;;;;;;;12.68;5.25;;;20.50;95.10;;;;;;4956526;28;20115;-48
2021/05/06 15:10:19;;;;;;;14.43;5.18;;;20.50;95.20;;;;;;4956656;28;20142;-49
2021/05/06 15:12:47;;;;;;;15.05;5.47;;;20.50;95.20;;;;;;4952900;28;20094;-49
2021/05/06 15:15:16;;;;;;;14.30;5.70;;;20.50;95.20;;;;;;4957258;28;20385;-53
2021/05/06 15:17:45;;;;;;;15.73;5.40;;;20.50;95.30;;;;;;4961779;28;20057;-46
2021/05/06 15:20:12;;;;;;;15.82;5.93;;;20.50;95.20;;;;;;4954485;28;20024;-47
2021/05/06 15:22:40;;;;;;;13.57;5.05;;;20.50;95.20;;;;;;4952223;28;20082;-49
2021/05/06 15:25:11;;;;;;;14.68;5.45;;;20.40;95.30;;;;;;4953510;28;20426;-46
2021/05/06 15:27:42;;;;;;;14.52;6.07;;;20.40;95.30;;;;;;4952643;29;20121;-46
2021/05/06 15:30:13;;;;;;;20.95;5.88;;;20.40;95.30;;;;;;4960679;28;20090;-54
2021/05/06 15:32:40;;;;;;;15.70;5.18;;;20.40;95.30;;;;;;4945588;29;20042;-51
2021/05/06 15:35:10;;;;;;;16.55;5.55;;;20.40;95.30;;;;;;4949397;29;20425;-46
2021/05/06 15:37:37;;;;;;;14.25;5.55;;;20.40;95.30;;;;;;4956615;28;20371;-57
2021/05/06 15:40:07;;;;;;;15.65;6.35;;;20.40;95.30;;;;;;4966265;28;20038;-47
2021/05/06 15:42:34;;;;;;;14.63;5.30;;;20.40;95.30;;;;;;4956472;28;20774;-48
2021/05/06 15:45:05;;;;;;;13.07;5.63;;;20.40;95.40;;;;;;4959115;28;20035;-50
2021/05/06 15:47:33;;;;;;;14.43;5.60;;;20.40;95.40;;;;;;4965158;28;20026;-48
2021/05/06 15:50:01;;;;;;;12.52;4.70;;;20.40;95.30;;;;;;4963629;28;20031;-45
2021/05/06 15:52:28;;;;;;;16.67;5.72;;;20.40;95.30;;;;;;4956703;28;20396;-48
2021/05/06 15:54:55;;;;;;;9.30;4.38;;;20.40;95.40;;;;;;4965073;28;20074;-46
2021/05/06 15:57:24;;;;;;;14.45;5.25;;;20.30;95.30;;;;;;4958471;28;20034;-51
2021/05/06 15:59:51;;;;;;;14.57;5.38;;;20.30;95.30;;;;;;4959243;28;20062;-46